Time;durP1;ratioP1;P1;durP2;ratioP2;P2;SDS_P1;SDS_P2;PMS_P1;PMS_P2;Temp;Humidity;BMP_temperature;BMP_pressure;BME280_temperature;BME280_humidity;BME280_pressure;Samples;Min_cycle;Max_cycle;Signal;HPM_P1;HPM_P2
2021/01/19 00:01:07;;;;;;;3.23;2.60;;;;;;;2.50;69.00;96226.75;5031329;28;20569;-77
2021/01/19 00:03:33;;;;;;;3.23;2.67;;;;;;;2.55;68.97;96219.56;5031171;28;20194;-78
2021/01/19 00:05:59;;;;;;;3.10;2.40;;;;;;;2.60;68.82;96217.50;5031031;28;20209;-77
2021/01/19 00:08:25;;;;;;;3.47;2.60;;;;;;;2.59;68.38;96212.53;5030993;28;20209;-77
2021/01/19 00:10:51;;;;;;;2.47;2.27;;;;;;;2.61;68.28;96206.41;5030722;28;20814;-77
2021/01/19 00:13:20;;;;;;;2.90;2.60;;;;;;;2.63;68.57;96206.31;5031134;28;20249;-77
2021/01/19 00:15:47;;;;;;;3.27;2.40;;;;;;;2.63;68.03;96212.19;5030805;28;20281;-77
2021/01/19 00:18:13;;;;;;;3.40;2.80;;;;;;;2.65;68.00;96214.63;5031044;28;20252;-77
2021/01/19 00:20:39;;;;;;;3.10;2.60;;;;;;;2.65;68.05;96205.28;5030497;28;20210;-77
2021/01/19 00:23:05;;;;;;;2.93;2.63;;;;;;;2.67;67.91;96200.91;5031307;28;20194;-77
2021/01/19 00:25:31;;;;;;;2.90;2.57;;;;;;;2.67;68.28;96202.63;5030519;28;20260;-77
2021/01/19 00:27:57;;;;;;;2.80;2.60;;;;;;;2.60;67.43;96201.44;5031184;28;20704;-77
2021/01/19 00:30:23;;;;;;;2.90;2.60;;;;;;;2.62;68.19;96190.25;5030527;28;20245;-77
2021/01/19 00:32:50;;;;;;;2.57;2.37;;;;;;;2.64;67.99;96196.03;5030948;28;20256;-78
2021/01/19 00:35:16;;;;;;;2.83;2.47;;;;;;;2.63;68.06;96196.16;5030614;28;20217;-76
2021/01/19 00:37:42;;;;;;;2.90;2.63;;;;;;;2.54;68.38;96191.72;5030918;28;20670;-78
2021/01/19 00:40:09;;;;;;;2.60;2.40;;;;;;;2.51;67.95;96190.22;5030978;28;20272;-77
2021/01/19 00:42:35;;;;;;;2.90;2.60;;;;;;;2.49;68.33;96197.16;5030261;28;20186;-77
2021/01/19 00:45:01;;;;;;;5.27;2.60;;;;;;;2.50;68.02;96191.16;5030241;28;20248;-77
2021/01/19 00:47:26;;;;;;;2.73;2.50;;;;;;;2.39;68.52;96184.31;5030456;28;20666;-77
2021/01/19 00:49:53;;;;;;;6.17;2.93;;;;;;;2.32;69.02;96183.13;5030731;28;20228;-76
2021/01/19 00:52:19;;;;;;;4.50;2.97;;;;;;;2.25;69.08;96188.78;5030673;28;20803;-77
2021/01/19 00:54:45;;;;;;;3.23;2.93;;;;;;;2.23;69.34;96180.44;5030564;28;20206;-77
2021/01/19 00:57:11;;;;;;;3.13;2.67;;;;;;;2.22;69.15;96178.81;5031705;28;20194;-77
2021/01/19 00:59:37;;;;;;;3.17;2.83;;;;;;;2.18;69.47;96178.22;5034580;28;20761;-77
2021/01/19 01:02:03;;;;;;;4.00;2.90;;;;;;;2.15;69.54;96178.44;5034638;28;20191;-77
2021/01/19 01:04:29;;;;;;;3.97;3.17;;;;;;;2.16;69.76;96174.97;5035011;28;20205;-77
2021/01/19 01:06:56;;;;;;;3.60;3.10;;;;;;;2.16;69.66;96167.38;5034366;28;20210;-77
2021/01/19 01:09:22;;;;;;;5.53;3.33;;;;;;;2.20;69.63;96165.41;5034330;28;20805;-77
2021/01/19 01:11:48;;;;;;;3.93;3.10;;;;;;;2.17;69.41;96168.97;5033970;28;20229;-77
2021/01/19 01:14:14;;;;;;;3.60;3.20;;;;;;;2.19;69.35;96176.50;5033878;28;20360;-77
2021/01/19 01:16:40;;;;;;;4.83;3.37;;;;;;;2.10;69.83;96178.00;5035210;28;20240;-77
2021/01/19 01:19:07;;;;;;;3.33;3.00;;;;;;;2.08;69.73;96175.56;5036820;28;20229;-78
2021/01/19 01:21:35;;;;;;;5.87;3.00;;;;;;;2.08;69.72;96177.28;5036816;28;20271;-78
2021/01/19 01:24:02;;;;;;;3.43;3.10;;;;;;;2.06;69.66;96168.97;5034863;28;20198;-77
2021/01/19 01:26:28;;;;;;;3.70;3.00;;;;;;;1.99;69.85;96175.38;5036773;28;20203;-77
2021/01/19 01:28:54;;;;;;;3.23;2.83;;;;;;;2.00;69.91;96171.94;5035110;28;20313;-76
2021/01/19 01:31:21;;;;;;;3.17;2.87;;;;;;;1.93;69.83;96171.53;5036757;28;20210;-76
2021/01/19 01:33:47;;;;;;;3.63;3.13;;;;;;;1.95;69.84;96176.50;5036116;28;20702;-77
2021/01/19 01:36:14;;;;;;;4.10;3.40;;;;;;;1.95;70.07;96179.06;5036108;28;20194;-77
2021/01/19 01:38:40;;;;;;;3.97;3.30;;;;;;;1.96;69.83;96175.59;5035474;28;20195;-77
2021/01/19 01:41:13;;;;;;;4.20;3.10;;;;;;;1.91;70.07;96185.28;5036035;28;20206;-78
2021/01/19 01:43:39;;;;;;;4.33;3.17;;;;;;;1.93;70.35;96185.97;5035182;28;20573;-78
2021/01/19 01:46:05;;;;;;;4.53;3.10;;;;;;;1.94;69.92;96182.50;5036100;28;20294;-77
2021/01/19 01:48:31;;;;;;;4.17;3.00;;;;;;;1.87;70.38;96187.22;5033819;28;20202;-76
2021/01/19 01:50:57;;;;;;;5.13;3.20;;;;;;;1.91;70.00;96178.50;5034448;28;20225;-78
2021/01/19 01:53:23;;;;;;;4.10;3.23;;;;;;;1.92;70.09;96177.56;5034012;28;20244;-77
2021/01/19 01:55:50;;;;;;;4.10;3.10;;;;;;;1.92;70.22;96177.56;5033743;28;20198;-78
2021/01/19 01:58:16;;;;;;;4.27;3.00;;;;;;;1.84;70.03;96171.41;5033796;28;20202;-77
2021/01/19 02:00:42;;;;;;;3.60;3.27;;;;;;;1.81;70.35;96153.84;5033781;28;20218;-78
2021/01/19 02:03:08;;;;;;;4.83;3.60;;;;;;;1.83;70.18;96160.44;5032762;28;20225;-77
2021/01/19 02:05:37;;;;;;;4.80;3.50;;;;;;;1.88;69.75;96160.94;5034071;28;20199;-79
2021/01/19 02:08:10;;;;;;;5.30;3.37;;;;;;;1.80;69.75;96155.56;5034882;28;20208;-78
2021/01/19 02:10:48;;;;;;;4.70;3.33;;;;;;;1.83;69.98;96155.34;5034751;28;20756;-79
2021/01/19 02:13:25;;;;;;;4.93;3.50;;;;;;;1.78;69.95;96143.91;5034332;28;20233;-79
2021/01/19 02:15:58;;;;;;;3.83;3.40;;;;;;;1.80;69.64;96139.53;5034065;28;20259;-79
2021/01/19 02:18:33;;;;;;;3.50;3.07;;;;;;;1.86;69.76;96145.00;5034542;28;20202;-79
2021/01/19 02:21:42;;;;;;;4.93;3.17;;;;;;;1.89;69.70;96143.97;5033657;28;20229;-79
2021/01/19 02:24:12;;;;;;;4.57;3.00;;;;;;;1.86;69.93;96139.91;5035457;28;20203;-79
2021/01/19 02:26:57;;;;;;;3.40;3.10;;;;;;;1.82;69.78;96146.13;5036983;28;20201;-77
2021/01/19 02:29:43;;;;;;;3.83;3.37;;;;;;;1.84;70.08;96131.59;5037637;28;20230;-79
2021/01/19 02:32:21;;;;;;;4.90;3.50;;;;;;;1.83;69.73;96129.16;5036718;28;20218;-79
2021/01/19 02:34:53;;;;;;;3.97;3.20;;;;;;;1.83;69.81;96124.91;5036227;28;20206;-79
2021/01/19 02:37:21;;;;;;;3.30;3.00;;;;;;;1.82;69.88;96128.34;5036746;28;20202;-79
2021/01/19 02:39:51;;;;;;;3.60;3.03;;;;;;;1.83;69.90;96124.91;5036554;28;20269;-78
2021/01/19 02:42:21;;;;;;;3.03;2.70;;;;;;;1.87;69.87;96118.69;5036291;28;20202;-78
2021/01/19 02:44:48;;;;;;;3.53;3.23;;;;;;;1.89;69.63;96124.47;5036124;28;20241;-78
2021/01/19 02:47:15;;;;;;;4.37;3.53;;;;;;;1.94;69.28;96116.50;5033923;28;20654;-78
2021/01/19 02:49:42;;;;;;;4.80;3.40;;;;;;;1.97;69.18;96119.63;5033522;28;20222;-79
2021/01/19 02:52:09;;;;;;;4.10;3.47;;;;;;;2.00;69.54;96116.88;5033330;28;20217;-79
2021/01/19 02:54:36;;;;;;;4.07;3.27;;;;;;;1.99;69.15;96122.88;5033265;28;20224;-78
2021/01/19 02:57:16;;;;;;;4.60;3.50;;;;;;;1.98;69.20;96105.22;5033013;28;20202;-79
2021/01/19 02:59:58;;;;;;;3.70;3.03;;;;;;;1.97;69.14;96111.19;5032798;28;20218;-76
2021/01/19 03:02:30;;;;;;;4.00;3.23;;;;;;;2.01;69.04;96099.91;5031691;28;20577;-77
2021/01/19 03:05:00;;;;;;;3.03;2.73;;;;;;;2.03;68.88;96098.88;5031280;28;20190;-77
2021/01/19 03:07:27;;;;;;;3.50;3.17;;;;;;;2.05;68.71;96096.22;5031558;28;20252;-78
2021/01/19 03:09:54;;;;;;;3.73;3.33;;;;;;;2.03;69.04;96098.88;5033174;28;20226;-79
2021/01/19 03:12:20;;;;;;;3.80;2.90;;;;;;;2.04;68.86;96095.41;5032047;28;20276;-77
2021/01/19 03:14:46;;;;;;;3.70;3.23;;;;;;;2.04;68.97;96097.97;5031394;28;20194;-78
2021/01/19 03:17:13;;;;;;;4.57;3.07;;;;;;;2.02;68.32;96094.72;5031772;28;20209;-77
2021/01/19 03:19:42;;;;;;;3.40;2.97;;;;;;;2.04;68.86;96095.41;5031166;28;20593;-77
2021/01/19 03:22:09;;;;;;;3.37;3.00;;;;;;;1.99;68.76;96099.22;5031190;28;20191;-77
2021/01/19 03:24:35;;;;;;;3.83;3.00;;;;;;;1.96;68.70;96087.53;5031470;28;20257;-77
2021/01/19 03:27:01;;;;;;;5.83;3.33;;;;;;;1.94;68.97;96086.84;5031313;28;20774;-77
2021/01/19 03:29:27;;;;;;;5.67;3.43;;;;;;;1.83;69.03;96086.81;5031023;28;20233;-77
2021/01/19 03:31:53;;;;;;;3.67;3.13;;;;;;;1.73;69.56;96096.81;5032546;28;20248;-79
2021/01/19 03:34:19;;;;;;;3.40;3.10;;;;;;;1.59;70.15;96098.72;5031803;28;20194;-79
2021/01/19 03:36:47;;;;;;;4.33;3.00;;;;;;;1.60;70.26;96093.53;5031938;28;20748;-79
2021/01/19 03:39:12;;;;;;;3.73;3.10;;;;;;;1.60;70.01;96092.72;5031953;28;20229;-78
2021/01/19 03:41:39;;;;;;;3.77;3.13;;;;;;;1.51;70.39;96090.84;5032574;28;20641;-79
2021/01/19 03:44:05;;;;;;;3.77;2.83;;;;;;;1.50;70.48;96095.13;5031752;28;20194;-78
2021/01/19 03:46:31;;;;;;;4.40;3.20;;;;;;;1.52;70.14;96088.22;5031675;28;20665;-79
2021/01/19 03:48:58;;;;;;;3.30;3.00;;;;;;;1.50;70.48;96082.44;5032051;28;20611;-78
2021/01/19 03:51:24;;;;;;;3.20;2.87;;;;;;;1.51;70.36;96084.06;5031530;28;20199;-79
2021/01/19 03:53:50;;;;;;;3.40;3.10;;;;;;;1.49;70.15;96093.50;5034488;28;20225;-79
2021/01/19 03:56:17;;;;;;;3.43;3.10;;;;;;;1.44;70.33;96082.84;5031809;28;20195;-79
2021/01/19 03:58:45;;;;;;;3.57;3.20;;;;;;;1.43;70.33;96071.09;5032344;28;20611;-79
2021/01/19 04:01:11;;;;;;;4.13;3.20;;;;;;;1.40;70.26;96076.38;5032216;28;20202;-78
2021/01/19 04:03:37;;;;;;;3.93;3.53;;;;;;;1.37;70.34;96074.84;5032161;28;20201;-78
2021/01/19 04:06:05;;;;;;;3.57;2.93;;;;;;;1.32;70.66;96064.25;5031726;28;20198;-79
2021/01/19 04:08:31;;;;;;;3.40;3.10;;;;;;;1.28;71.08;96062.03;5032070;28;20740;-79
2021/01/19 04:10:58;;;;;;;4.23;3.17;;;;;;;1.27;70.88;96063.75;5031508;28;20313;-79
2021/01/19 04:13:24;;;;;;;4.27;3.23;;;;;;;1.28;70.91;96067.91;5031550;28;20593;-79
2021/01/19 04:15:50;;;;;;;3.93;3.03;;;;;;;1.25;70.75;96065.59;5031634;28;20198;-78
2021/01/19 04:18:16;;;;;;;3.97;3.13;;;;;;;1.19;70.92;96065.19;5032284;28;20230;-79
2021/01/19 04:20:42;;;;;;;5.20;3.33;;;;;;;1.19;71.29;96070.28;5031605;28;20214;-79
2021/01/19 04:23:13;;;;;;;4.10;3.40;;;;;;;1.19;71.16;96065.19;5031355;28;20190;-79
2021/01/19 04:25:39;;;;;;;3.87;3.10;;;;;;;1.19;71.31;96060.94;5031275;28;20259;-78
2021/01/19 04:28:06;;;;;;;4.97;3.33;;;;;;;1.14;71.14;96052.06;5030949;28;20260;-79
2021/01/19 04:30:32;;;;;;;4.60;3.30;;;;;;;1.10;71.03;96050.63;5031291;28;20221;-79
2021/01/19 04:32:58;;;;;;;3.17;2.87;;;;;;;1.10;71.33;96050.63;5030907;28;20590;-78
2021/01/19 04:35:24;;;;;;;3.53;3.23;;;;;;;1.09;71.35;96052.38;5030783;28;20209;-79
2021/01/19 04:37:50;;;;;;;4.50;3.50;;;;;;;1.07;71.11;96051.66;5030534;28;20236;-78
2021/01/19 04:40:16;;;;;;;3.73;2.83;;;;;;;1.12;70.91;96056.41;5031151;28;20226;-79
2021/01/19 04:42:42;;;;;;;3.70;3.30;;;;;;;1.08;71.23;96049.94;5031109;28;20190;-78
2021/01/19 04:45:11;;;;;;;3.67;3.30;;;;;;;1.07;71.25;96041.53;5030397;28;20217;-78
2021/01/19 04:47:38;;;;;;;3.53;3.23;;;;;;;1.09;71.03;96038.88;5030122;28;20259;-79
2021/01/19 04:50:06;;;;;;;3.73;3.17;;;;;;;1.01;71.38;96039.41;5031143;28;20218;-78
2021/01/19 04:52:33;;;;;;;4.80;3.23;;;;;;;1.04;71.13;96037.47;5011173;28;20223;-79
2021/01/19 04:55:05;;;;;;;3.30;3.00;;;;;;;1.03;71.45;96032.50;5011429;28;20225;-79
2021/01/19 04:57:33;;;;;;;4.57;3.43;;;;;;;1.07;71.02;96030.56;5030575;28;20202;-79
2021/01/19 05:00:07;;;;;;;3.57;3.20;;;;;;;0.99;71.43;96020.94;5031232;28;20249;-79
2021/01/19 05:03:00;;;;;;;3.43;3.07;;;;;;;0.99;71.17;96029.38;5030925;28;20193;-79
2021/01/19 05:05:49;;;;;;;4.20;3.23;;;;;;;1.01;71.66;96024.19;5030436;28;20681;-79
2021/01/19 05:08:59;;;;;;;3.17;2.67;;;;;;;0.93;71.30;96018.88;5031669;28;20213;-78
2021/01/19 05:11:28;;;;;;;3.97;2.90;;;;;;;0.89;71.62;96015.72;5031474;28;20209;-78
2021/01/19 05:14:04;;;;;;;3.90;3.10;;;;;;;0.89;71.57;96008.13;5029753;28;20210;-79
2021/01/19 05:16:32;;;;;;;3.80;2.80;;;;;;;0.89;71.56;96012.38;5030374;28;20199;-78
2021/01/19 05:19:00;;;;;;;3.13;2.80;;;;;;;0.93;70.79;96007.00;5029443;28;20592;-79
2021/01/19 05:21:26;;;;;;;3.63;2.70;;;;;;;0.96;70.42;96006.75;5030543;28;20199;-79
2021/01/19 05:23:53;;;;;;;2.83;2.50;;;;;;;0.94;69.79;95995.94;5030019;28;20268;-77
2021/01/19 05:26:19;;;;;;;2.57;2.37;;;;;;;0.96;69.66;95999.16;5029891;28;20242;-77
2021/01/19 05:28:47;;;;;;;2.87;2.30;;;;;;;0.98;69.81;95999.03;5029488;28;20214;-77
2021/01/19 05:31:22;;;;;;;8.90;6.27;;;;;;;0.98;69.08;95996.50;5029447;28;20222;-77
2021/01/19 05:34:07;;;;;;;3.07;2.57;;;;;;;0.97;68.68;95989.81;5028633;28;20589;-77
2021/01/19 05:36:40;;;;;;;2.07;1.83;;;;;;;0.93;68.49;95986.72;5026831;28;20199;-79
2021/01/19 05:39:08;;;;;;;2.77;1.93;;;;;;;0.95;68.34;95989.16;5030515;28;20229;-78
2021/01/19 05:41:37;;;;;;;2.13;1.80;;;;;;;0.90;68.32;95988.66;5030222;28;20252;-78
2021/01/19 05:44:18;;;;;;;2.40;1.83;;;;;;;0.87;68.84;95984.59;5032225;28;20201;-78
2021/01/19 05:46:48;;;;;;;2.00;1.60;;;;;;;0.93;68.20;95983.38;5030554;28;20801;-77
2021/01/19 05:49:18;;;;;;;1.70;1.60;;;;;;;0.89;67.82;95980.25;5027645;28;20257;-78
2021/01/19 05:51:46;;;;;;;3.53;1.80;;;;;;;0.90;68.20;95981.06;5027084;28;20199;-79
2021/01/19 05:54:25;;;;;;;1.70;1.60;;;;;;;0.79;67.73;95975.91;5029531;28;20252;-78
2021/01/19 05:56:57;;;;;;;3.07;1.70;;;;;;;0.71;68.02;95968.84;5030855;28;20205;-78
2021/01/19 05:59:28;;;;;;;2.63;2.20;;;;;;;0.70;67.77;95977.38;5029998;28;20891;-77
2021/01/19 06:01:59;;;;;;;2.00;1.77;;;;;;;0.69;68.16;95976.56;5033497;28;20224;-78
2021/01/19 06:04:43;;;;;;;2.40;2.17;;;;;;;0.66;67.64;95974.22;5031907;28;20208;-76
2021/01/19 06:07:11;;;;;;;2.30;1.90;;;;;;;0.68;68.10;95980.00;5032643;28;20204;-76
2021/01/19 06:09:38;;;;;;;2.60;1.90;;;;;;;0.72;67.94;95979.81;5033188;28;20261;-80
2021/01/19 06:12:05;;;;;;;2.60;2.03;;;;;;;0.70;67.65;95969.78;5031639;28;20209;-77
2021/01/19 06:14:32;;;;;;;2.17;1.97;;;;;;;0.75;67.32;95967.72;5032398;28;20218;-77
2021/01/19 06:17:21;;;;;;;1.83;1.53;;;;;;;0.74;67.18;95965.31;5031392;28;20202;-77
2021/01/19 06:19:48;;;;;;;4.00;2.00;;;;;;;0.72;67.25;95957.00;5021571;28;20713;-77
2021/01/19 06:22:19;;;;;;;2.87;1.67;;;;;;;0.71;67.38;95953.66;5033049;28;20909;-77
2021/01/19 06:24:46;;;;;;;2.50;1.90;;;;;;;0.72;67.26;95959.53;5028120;28;20662;-78
2021/01/19 06:27:25;;;;;;;1.77;1.67;;;;;;;0.67;67.67;95953.06;5032156;28;20202;-79
2021/01/19 06:29:52;;;;;;;1.90;1.70;;;;;;;0.74;67.67;95943.31;5031906;28;20759;-76
2021/01/19 06:32:19;;;;;;;2.47;2.00;;;;;;;0.65;67.21;95941.41;5030537;28;20272;-77
2021/01/19 06:34:45;;;;;;;2.07;1.80;;;;;;;0.72;67.49;95934.19;5030599;28;20206;-77
2021/01/19 06:37:24;;;;;;;2.70;2.00;;;;;;;0.76;67.60;95928.00;5030178;28;20194;-78
2021/01/19 06:39:55;;;;;;;2.40;2.07;;;;;;;0.79;67.12;95928.56;5031836;28;20234;-78
2021/01/19 06:42:26;;;;;;;2.67;1.97;;;;;;;0.80;67.00;95929.38;5031983;28;20625;-79
2021/01/19 06:44:56;;;;;;;2.27;2.00;;;;;;;0.81;66.65;95919.13;5031129;28;20195;-78
2021/01/19 06:47:22;;;;;;;2.00;1.80;;;;;;;0.83;66.53;95917.31;5032544;28;20217;-80
2021/01/19 06:49:51;;;;;;;2.10;1.90;;;;;;;0.83;69.08;95908.88;5031406;28;20230;-79
2021/01/19 06:52:19;;;;;;;3.07;2.10;;;;;;;1.13;71.23;95916.03;5032558;28;20206;-80
2021/01/19 06:55:05;;;;;;;2.03;1.83;;;;;;;1.13;66.13;95908.44;5031964;28;20194;-76
2021/01/19 06:57:53;;;;;;;2.73;2.13;;;;;;;1.07;65.97;95907.13;5031163;28;20218;-78
2021/01/19 07:00:21;;;;;;;2.27;1.83;;;;;;;0.92;65.37;95905.72;4997064;28;20257;-77
2021/01/19 07:02:50;;;;;;;2.17;1.70;;;;;;;0.83;64.95;95904.63;5031069;28;20700;-78
2021/01/19 07:05:17;;;;;;;2.17;1.80;;;;;;;0.83;65.48;95903.81;5031459;28;20198;-80
2021/01/19 07:07:46;;;;;;;3.20;2.00;;;;;;;0.74;65.02;95894.34;5032453;28;20198;-77
2021/01/19 07:10:14;;;;;;;1.80;1.70;;;;;;;0.67;64.80;95904.91;5030300;28;20225;-77
2021/01/19 07:13:01;;;;;;;3.13;1.73;;;;;;;0.68;65.33;95893.06;5030334;28;20221;-77
2021/01/19 07:16:07;;;;;;;2.13;1.90;;;;;;;0.71;64.75;95892.03;5029924;28;20255;-76
2021/01/19 07:19:03;;;;;;;2.60;1.77;;;;;;;0.75;64.36;95879.03;5026507;28;20198;-77
2021/01/19 07:21:48;;;;;;;1.50;1.40;;;;;;;0.74;64.31;95879.16;5028967;28;20241;-77
2021/01/19 07:24:20;;;;;;;1.87;1.40;;;;;;;0.67;64.37;95882.09;5029989;28;20236;-76
2021/01/19 07:26:46;;;;;;;1.80;1.53;;;;;;;0.63;64.25;95870.56;5030148;28;20202;-77
2021/01/19 07:29:15;;;;;;;1.50;1.40;;;;;;;0.61;64.19;95874.13;5026610;28;20325;-79
2021/01/19 07:31:41;;;;;;;1.93;1.50;;;;;;;0.68;64.09;95871.06;5031318;28;20661;-79
2021/01/19 07:34:08;;;;;;;2.43;1.60;;;;;;;0.75;64.17;95868.09;5030112;28;20328;-80
2021/01/19 07:36:34;;;;;;;1.50;1.40;;;;;;;0.65;63.69;95863.66;5031042;28;20249;-80
2021/01/19 07:39:11;;;;;;;1.77;1.50;;;;;;;0.60;63.85;95860.66;5030423;28;20289;-81
2021/01/19 07:41:38;;;;;;;1.30;1.20;;;;;;;0.60;64.29;95852.25;5023556;28;20205;-78
2021/01/19 07:44:04;;;;;;;1.87;1.57;;;;;;;0.53;63.85;95851.06;5028793;28;20570;-77
2021/01/19 07:46:31;;;;;;;3.23;1.90;;;;;;;0.58;63.63;95849.81;5029946;28;20225;-76
2021/01/19 07:49:00;;;;;;;1.90;1.60;;;;;;;0.66;62.87;95849.28;5028341;28;20198;-76
2021/01/19 07:51:38;;;;;;;3.07;1.70;;;;;;;0.79;63.08;95836.53;5028902;28;20206;-77
2021/01/19 07:54:05;;;;;;;2.27;1.83;;;;;;;0.99;62.94;95833.34;5027949;28;20744;-76
2021/01/19 07:56:32;;;;;;;1.80;1.70;;;;;;;1.03;62.32;95833.03;5028044;28;20345;-76
2021/01/19 07:59:00;;;;;;;2.17;1.50;;;;;;;1.07;61.68;95833.63;5028447;28;20202;-77
2021/01/19 08:01:27;;;;;;;1.70;1.60;;;;;;;1.22;61.33;95827.41;5029252;28;20268;-77
2021/01/19 08:03:53;;;;;;;1.97;1.50;;;;;;;1.36;61.44;95821.31;5024878;28;20678;-77
2021/01/19 08:06:32;;;;;;;1.60;1.40;;;;;;;1.32;61.17;95819.94;5028573;28;20206;-80
2021/01/19 08:36:02;;;;;;;1.73;1.40;;;;;;;1.88;59.73;95794.53;5055519;28;20200;-77
2021/01/19 08:38:44;;;;;;;1.60;1.50;;;;;;;2.04;59.59;95778.00;5056755;28;20386;-78
2021/01/19 08:42:03;;;;;;;1.50;1.40;;;;;;;2.19;59.19;95785.34;5046330;28;20683;-77
2021/01/19 08:44:40;;;;;;;1.70;1.50;;;;;;;2.22;59.18;95787.66;4933898;29;20232;-77
2021/01/19 08:47:25;;;;;;;2.13;1.60;;;;;;;2.24;59.02;95781.53;5005514;28;20201;-77
2021/01/19 08:50:21;;;;;;;1.50;1.40;;;;;;;2.14;58.92;95774.72;5042302;28;20221;-77
2021/01/19 08:53:10;;;;;;;1.60;1.50;;;;;;;1.96;58.94;95776.97;5044262;28;20221;-79
2021/01/19 08:55:54;;;;;;;2.37;1.30;;;;;;;1.93;59.16;95767.03;5040417;28;20194;-79
2021/01/19 08:58:26;;;;;;;1.60;1.40;;;;;;;1.91;59.61;95769.72;5044217;28;20197;-79
2021/01/19 09:01:20;;;;;;;2.10;1.50;;;;;;;2.05;59.14;95778.81;5047434;28;20276;-76
2021/01/19 09:04:12;;;;;;;1.50;1.40;;;;;;;2.19;58.63;95767.56;5042065;28;20622;-77
2021/01/19 09:10:06;;;;;;;1.77;1.67;;;;;;;2.62;58.17;95757.34;5042171;28;20221;-76
2021/01/19 09:16:39;;;;;;;1.63;1.40;;;;;;;2.92;57.06;95766.75;5032174;28;20843;-79
2021/01/19 09:19:31;;;;;;;1.90;1.40;;;;;;;2.93;57.01;95761.53;5007983;28;20772;-76
2021/01/19 09:22:34;;;;;;;1.40;1.30;;;;;;;3.13;56.52;95750.53;5037845;28;20247;-77
2021/01/19 09:25:53;;;;;;;;;;;;;;;;;;;;;
2021/01/19 09:32:17;;;;;;;1.50;1.40;;;;;;;3.79;55.46;95756.00;5035324;28;20208;-76
2021/01/19 09:38:37;;;;;;;1.30;1.20;;;;;;;4.28;53.79;95733.91;5025142;28;20201;-77
2021/01/19 09:44:39;;;;;;;1.90;1.30;;;;;;;4.70;52.11;95731.09;5011574;28;20201;-77
2021/01/19 09:47:30;;;;;;;;;;;;;;;;;;;;;
2021/01/19 09:53:41;;;;;;;1.30;1.20;;;;;;;4.52;52.09;95708.03;5037946;28;20213;-77
2021/01/19 09:56:34;;;;;;;1.40;1.30;;;;;;;4.49;52.18;95696.34;5047743;28;20207;-77
2021/01/19 09:59:52;;;;;;;;;;;;;;;;;;;;;
2021/01/19 10:02:52;;;;;;;1.03;1.03;;;;;;;4.70;52.65;95674.97;5050324;28;20205;-78
2021/01/19 10:12:10;;;;;;;1.30;1.20;;;;;;;4.92;51.26;95658.53;4963972;28;20215;-78
2021/01/19 10:14:56;;;;;;;1.53;1.27;;;;;;;5.01;51.57;95648.28;4962302;28;20857;-76
2021/01/19 10:18:33;;;;;;;1.00;1.00;;;;;;;5.07;50.93;95639.28;4967874;28;20255;-75
2021/01/19 10:25:38;;;;;;;1.73;1.27;;;;;;;5.35;50.30;95622.22;5017454;28;20197;-77
2021/01/19 10:28:25;;;;;;;1.50;1.20;;;;;;;5.38;50.65;95619.38;5047310;28;20703;-77
2021/01/19 10:34:43;;;;;;;;;;;;;;;;;;;;;
2021/01/19 10:41:42;;;;;;;1.20;1.10;;;;;;;5.59;51.98;95608.88;5039977;28;20802;-78
2021/01/19 11:14:56;;;;;;;2.20;1.70;;;;;;;6.19;54.07;95572.34;5038284;28;20300;-76
2021/01/19 12:23:11;;;;;;;;;;;;;;;;;;;;;
2021/01/19 12:26:17;;;;;;;1.20;1.10;;;;;;;6.25;46.02;95425.25;5049549;28;20197;-78
2021/01/19 12:35:33;;;;;;;3.13;1.10;;;;;;;5.87;45.92;95411.13;5025268;28;20206;-77
2021/01/19 12:38:15;;;;;;;3.20;1.10;;;;;;;5.88;46.81;95425.50;4996043;28;20517;-77
2021/01/19 12:48:09;;;;;;;;;;;;;;;;;;;;;
2021/01/19 12:50:45;;;;;;;2.10;1.20;;;;;;;5.75;47.27;95385.06;5027982;28;20226;-77
2021/01/19 12:53:42;;;;;;;1.13;1.00;;;;;;;5.76;47.12;95376.44;5031574;28;20221;-77
2021/01/19 12:56:10;;;;;;;1.30;1.10;;;;;;;5.73;47.50;95379.28;5028296;28;20213;-77
2021/01/19 12:59:02;;;;;;;3.10;1.20;;;;;;;5.74;47.21;95372.44;5032953;28;20593;-77
2021/01/19 13:02:00;;;;;;;;;;;;;;;;;;;;;
2021/01/19 13:04:41;;;;;;;1.40;1.30;;;;;;;5.61;46.85;95372.81;5030830;28;20198;-77
2021/01/19 13:07:15;;;;;;;1.53;1.10;;;;;;;5.72;47.19;95359.81;5027613;28;20259;-77
2021/01/19 13:10:08;;;;;;;2.40;1.17;;;;;;;5.65;46.65;95363.91;5018655;28;20268;-78
2021/01/19 13:13:00;;;;;;;1.63;1.10;;;;;;;5.67;46.80;95362.03;5033346;28;20201;-77
2021/01/19 13:15:53;;;;;;;;;;;;;;;;;;;;;
2021/01/19 13:21:40;;;;;;;1.20;1.00;;;;;;;5.74;46.00;95350.25;5029035;28;20201;-77
2021/01/19 13:24:32;;;;;;;0.90;0.90;;;;;;;5.68;45.86;95353.41;5026200;28;20194;-76
2021/01/19 13:27:28;;;;;;;2.80;1.10;;;;;;;5.66;45.92;95350.19;5032135;28;20208;-77
2021/01/19 13:30:04;;;;;;;1.27;1.17;;;;;;;5.63;46.07;95347.13;5032859;28;20222;-76
2021/01/19 13:32:34;;;;;;;1.00;1.00;;;;;;;5.64;46.11;95362.31;5030890;28;20545;-77
2021/01/19 13:38:12;;;;;;;1.10;0.90;;;;;;;5.71;46.47;95350.56;5008754;28;20298;-77
2021/01/19 13:40:56;;;;;;;1.23;0.90;;;;;;;5.69;46.18;95344.78;5031675;28;20221;-77
2021/01/19 13:43:37;;;;;;;1.00;0.90;;;;;;;5.68;46.05;95340.63;5033408;28;20285;-78
2021/01/19 13:46:21;;;;;;;1.73;0.97;;;;;;;5.71;46.03;95336.97;5032616;28;20214;-77
2021/01/19 13:49:06;;;;;;;1.90;1.10;;;;;;;5.69;45.88;95341.44;5032493;28;20228;-77
2021/01/19 13:52:01;;;;;;;0.90;0.80;;;;;;;5.68;45.69;95348.28;5031909;28;20194;-78
2021/01/19 13:54:38;;;;;;;1.10;0.97;;;;;;;5.71;46.24;95344.66;5027116;28;20245;-77
2021/01/19 13:57:42;;;;;;;1.70;0.80;;;;;;;5.68;46.27;95342.38;5013631;28;20285;-77
2021/01/19 14:00:23;;;;;;;0.87;0.80;;;;;;;5.65;45.81;95338.38;5020816;28;20218;-77
2021/01/19 14:06:27;;;;;;;1.47;1.00;;;;;;;5.60;45.47;95330.38;5024255;28;20210;-76
2021/01/19 14:09:16;;;;;;;0.67;0.67;;;;;;;5.73;47.56;95325.66;5030560;28;20682;-77
2021/01/19 14:11:53;;;;;;;1.13;1.00;;;;;;;5.91;48.17;95333.28;5020942;28;20267;-76
2021/01/19 14:14:27;;;;;;;0.77;0.77;;;;;;;5.97;45.71;95327.53;5025901;28;20218;-77
2021/01/19 14:19:49;;;;;;;3.07;0.90;;;;;;;5.86;45.83;95336.25;5017350;28;20214;-76
2021/01/19 14:22:19;;;;;;;2.33;0.90;;;;;;;5.87;45.28;95329.38;5031117;28;20252;-77
2021/01/19 14:25:00;;;;;;;1.13;0.80;;;;;;;5.86;45.81;95312.44;5031576;28;20213;-78
2021/01/19 14:30:31;;;;;;;0.80;0.80;;;;;;;5.85;45.62;95321.06;5021541;28;20218;-77
2021/01/19 14:36:04;;;;;;;0.90;0.80;;;;;;;5.77;45.41;95333.81;5016618;28;20202;-77
2021/01/19 14:41:41;;;;;;;0.80;0.80;;;;;;;5.84;46.00;95334.78;5029727;28;21549;-76
2021/01/19 14:44:32;;;;;;;1.47;0.90;;;;;;;5.85;46.53;95341.50;5031117;28;20673;-77
2021/01/19 14:47:13;;;;;;;1.50;0.87;;;;;;;5.78;47.60;95346.41;5030975;28;20190;-77
2021/01/19 14:49:48;;;;;;;0.70;0.70;;;;;;;5.73;48.61;95333.31;5029863;28;20218;-77
2021/01/19 14:52:30;;;;;;;0.80;0.80;;;;;;;5.71;49.36;95347.19;5013742;28;20194;-77
2021/01/19 14:55:34;;;;;;;0.90;0.90;;;;;;;5.67;50.62;95351.81;5029694;28;20276;-78
2021/01/19 14:58:01;;;;;;;1.43;0.90;;;;;;;6.06;60.79;95367.50;5004782;28;20202;-75
2021/01/19 15:00:37;;;;;;;2.10;0.90;;;;;;;6.47;57.42;95347.16;5031834;28;20585;-78
2021/01/19 15:03:17;;;;;;;0.70;0.70;;;;;;;6.35;53.18;95356.88;5029364;28;20273;-76
2021/01/19 15:06:00;;;;;;;1.00;0.90;;;;;;;6.15;55.31;95345.34;5016031;28;20560;-77
2021/01/19 15:09:04;;;;;;;1.00;0.83;;;;;;;5.79;57.11;95350.56;5031396;28;20209;-77
2021/01/19 15:12:00;;;;;;;1.03;0.80;;;;;;;5.65;59.57;95346.03;5021425;28;20198;-78
2021/01/19 15:15:10;;;;;;;0.90;0.90;;;;;;;5.55;60.78;95358.13;5029925;28;20214;-78
2021/01/19 15:18:12;;;;;;;0.90;0.90;;;;;;;5.44;62.28;95354.06;5009215;28;20208;-77
2021/01/19 15:21:04;;;;;;;1.37;0.93;;;;;;;5.36;64.19;95358.34;5030895;28;20221;-77
2021/01/19 15:23:41;;;;;;;1.00;1.00;;;;;;;5.32;64.47;95364.69;5019535;28;20202;-76
2021/01/19 15:26:32;;;;;;;1.10;0.90;;;;;;;5.19;65.93;95363.34;5010653;28;20199;-77
2021/01/19 15:29:19;;;;;;;1.40;0.97;;;;;;;5.21;67.22;95363.97;5018911;28;20203;-77
2021/01/19 15:32:05;;;;;;;1.00;0.90;;;;;;;5.23;67.34;95371.47;5029365;28;20589;-77
2021/01/19 15:34:43;;;;;;;3.73;1.07;;;;;;;5.16;69.14;95371.28;5027663;28;20222;-76
2021/01/19 15:37:14;;;;;;;0.70;0.70;;;;;;;5.05;70.27;95366.41;5028683;28;20205;-77
2021/01/19 15:45:25;;;;;;;0.97;0.80;;;;;;;4.91;74.12;95358.47;5028784;28;20198;-77
2021/01/19 15:47:59;;;;;;;0.80;0.80;;;;;;;4.86;74.92;95356.34;5029957;28;20198;-77
2021/01/19 15:50:42;;;;;;;1.00;0.80;;;;;;;4.77;75.67;95354.69;5030259;28;20368;-77
2021/01/19 15:53:12;;;;;;;1.03;0.80;;;;;;;4.73;75.30;95358.47;5029801;28;20686;-76